sensor_id;sensor_type;location;lat;lon;timestamp;pressure;altitude;pressure_sealevel;temperature
43292;BMP280;28754;47.700;7.924;2023-03-25T00:02:20;90996.78;;;8.95
43292;BMP280;28754;47.700;7.924;2023-03-25T00:05:07;90994.75;;;8.92
43292;BMP280;28754;47.700;7.924;2023-03-25T00:07:53;91011.84;;;8.92
43292;BMP280;28754;47.700;7.924;2023-03-25T00:10:40;90998.56;;;8.85
43292;BMP280;28754;47.700;7.924;2023-03-25T00:13:26;91008.28;;;8.83
43292;BMP280;28754;47.700;7.924;2023-03-25T00:16:13;91008.53;;;8.82
43292;BMP280;28754;47.700;7.924;2023-03-25T00:19:00;91002.16;;;8.84
43292;BMP280;28754;47.700;7.924;2023-03-25T00:21:47;91009.03;;;8.79
43292;BMP280;28754;47.700;7.924;2023-03-25T00:24:35;91016.19;;;8.77
43292;BMP280;28754;47.700;7.924;2023-03-25T00:27:22;91005.97;;;8.72
43292;BMP280;28754;47.700;7.924;2023-03-25T00:30:09;90997.78;;;8.70
43292;BMP280;28754;47.700;7.924;2023-03-25T00:32:55;90998.06;;;8.68
43292;BMP280;28754;47.700;7.924;2023-03-25T00:35:42;91013.09;;;8.70
43292;BMP280;28754;47.700;7.924;2023-03-25T00:38:32;91006.47;;;8.74
43292;BMP280;28754;47.700;7.924;2023-03-25T00:41:22;91007.00;;;8.76
43292;BMP280;28754;47.700;7.924;2023-03-25T00:44:12;91015.41;;;8.76
43292;BMP280;28754;47.700;7.924;2023-03-25T00:46:59;91013.13;;;8.75
43292;BMP280;28754;47.700;7.924;2023-03-25T00:49:47;91015.16;;;8.73
43292;BMP280;28754;47.700;7.924;2023-03-25T00:52:35;91016.16;;;8.72
43292;BMP280;28754;47.700;7.924;2023-03-25T00:55:22;90993.97;;;8.72
43292;BMP280;28754;47.700;7.924;2023-03-25T00:58:09;91004.69;;;8.64
43292;BMP280;28754;47.700;7.924;2023-03-25T01:00:55;91006.22;;;8.60
43292;BMP280;28754;47.700;7.924;2023-03-25T01:03:43;91002.63;;;8.56
43292;BMP280;28754;47.700;7.924;2023-03-25T01:06:35;91022.28;;;8.51
43292;BMP280;28754;47.700;7.924;2023-03-25T01:09:21;91015.41;;;8.52
43292;BMP280;28754;47.700;7.924;2023-03-25T01:12:08;90995.75;;;8.47
43292;BMP280;28754;47.700;7.924;2023-03-25T01:14:54;91001.34;;;8.44
43292;BMP280;28754;47.700;7.924;2023-03-25T01:17:41;91001.84;;;8.46
43292;BMP280;28754;47.700;7.924;2023-03-25T01:20:27;91002.38;;;8.43
43292;BMP280;28754;47.700;7.924;2023-03-25T01:23:14;91004.91;;;8.43
43292;BMP280;28754;47.700;7.924;2023-03-25T01:26:00;91003.13;;;8.44
43292;BMP280;28754;47.700;7.924;2023-03-25T01:28:47;90997.28;;;8.43
43292;BMP280;28754;47.700;7.924;2023-03-25T01:31:33;90988.06;;;8.42
43292;BMP280;28754;47.700;7.924;2023-03-25T01:34:20;91004.41;;;8.41
43292;BMP280;28754;47.700;7.924;2023-03-25T01:37:08;91009.75;;;8.40
43292;BMP280;28754;47.700;7.924;2023-03-25T01:39:55;91009.00;;;8.39
43292;BMP280;28754;47.700;7.924;2023-03-25T01:42:41;91002.38;;;8.38
43292;BMP280;28754;47.700;7.924;2023-03-25T01:45:31;91006.44;;;8.39
43292;BMP280;28754;47.700;7.924;2023-03-25T01:48:33;91003.88;;;8.39
43292;BMP280;28754;47.700;7.924;2023-03-25T01:51:29;90996.25;;;8.34
43292;BMP280;28754;47.700;7.924;2023-03-25T01:54:16;90992.66;;;8.35
43292;BMP280;28754;47.700;7.924;2023-03-25T01:57:05;90990.63;;;8.32
43292;BMP280;28754;47.700;7.924;2023-03-25T01:59:53;90987.81;;;8.39
43292;BMP280;28754;47.700;7.924;2023-03-25T02:02:41;90984.50;;;8.43
43292;BMP280;28754;47.700;7.924;2023-03-25T02:05:33;90976.84;;;8.48
43292;BMP280;28754;47.700;7.924;2023-03-25T02:08:22;90961.81;;;8.52
43292;BMP280;28754;47.700;7.924;2023-03-25T02:11:09;90949.31;;;8.50
43292;BMP280;28754;47.700;7.924;2023-03-25T02:13:59;90947.78;;;8.49
43292;BMP280;28754;47.700;7.924;2023-03-25T02:28:26;90981.19;;;7.62
43292;BMP280;28754;47.700;7.924;2023-03-25T02:40:48;91021.97;;;6.85
43292;BMP280;28754;47.700;7.924;2023-03-25T02:43:46;91015.38;;;6.84
43292;BMP280;28754;47.700;7.924;2023-03-25T02:46:39;91019.44;;;6.85
43292;BMP280;28754;47.700;7.924;2023-03-25T02:49:29;91006.94;;;6.84
43292;BMP280;28754;47.700;7.924;2023-03-25T02:52:24;91019.44;;;6.85
43292;BMP280;28754;47.700;7.924;2023-03-25T02:55:14;91015.31;;;6.80
43292;BMP280;28754;47.700;7.924;2023-03-25T02:58:04;91021.66;;;6.77
43292;BMP280;28754;47.700;7.924;2023-03-25T03:00:52;91013.78;;;6.79
43292;BMP280;28754;47.700;7.924;2023-03-25T03:03:44;90996.72;;;6.74
43292;BMP280;28754;47.700;7.924;2023-03-25T03:06:34;91007.88;;;6.73
43292;BMP280;28754;47.700;7.924;2023-03-25T03:09:44;91023.13;;;6.68
43292;BMP280;28754;47.700;7.924;2023-03-25T03:19:07;91022.09;;;6.69
43292;BMP280;28754;47.700;7.924;2023-03-25T03:22:17;91028.50;;;6.72
43292;BMP280;28754;47.700;7.924;2023-03-25T03:25:26;91009.66;;;6.73
43292;BMP280;28754;47.700;7.924;2023-03-25T03:28:23;91015.06;;;6.76
43292;BMP280;28754;47.700;7.924;2023-03-25T03:31:33;91003.06;;;6.72
43292;BMP280;28754;47.700;7.924;2023-03-25T03:34:27;91004.16;;;6.81
43292;BMP280;28754;47.700;7.924;2023-03-25T03:37:21;91001.34;;;6.82
43292;BMP280;28754;47.700;7.924;2023-03-25T03:40:13;91008.22;;;6.82
43292;BMP280;28754;47.700;7.924;2023-03-25T03:43:05;91009.25;;;6.85
43292;BMP280;28754;47.700;7.924;2023-03-25T03:45:58;91000.63;;;6.86
43292;BMP280;28754;47.700;7.924;2023-03-25T03:48:54;91011.28;;;6.83
43292;BMP280;28754;47.700;7.924;2023-03-25T03:52:01;91007.69;;;6.80
43292;BMP280;28754;47.700;7.924;2023-03-25T03:55:02;91016.88;;;6.81
43292;BMP280;28754;47.700;7.924;2023-03-25T03:57:56;91001.50;;;6.71
43292;BMP280;28754;47.700;7.924;2023-03-25T04:00:50;91008.06;;;6.62
43292;BMP280;28754;47.700;7.924;2023-03-25T04:03:44;91007.28;;;6.61
43292;BMP280;28754;47.700;7.924;2023-03-25T04:06:39;91015.41;;;6.58
43292;BMP280;28754;47.700;7.924;2023-03-25T04:09:35;91025.34;;;6.60
43292;BMP280;28754;47.700;7.924;2023-03-25T04:12:27;91007.03;;;6.63
43292;BMP280;28754;47.700;7.924;2023-03-25T04:15:14;90990.22;;;6.57
43292;BMP280;28754;47.700;7.924;2023-03-25T04:18:01;90992.78;;;6.57
43292;BMP280;28754;47.700;7.924;2023-03-25T04:20:48;90995.78;;;6.54
43292;BMP280;28754;47.700;7.924;2023-03-25T04:23:35;91003.91;;;6.51
43292;BMP280;28754;47.700;7.924;2023-03-25T04:26:24;90990.44;;;6.50
43292;BMP280;28754;47.700;7.924;2023-03-25T04:29:11;90997.03;;;6.51
43292;BMP280;28754;47.700;7.924;2023-03-25T04:31:59;91005.69;;;6.50
43292;BMP280;28754;47.700;7.924;2023-03-25T04:34:46;91014.81;;;6.47
43292;BMP280;28754;47.700;7.924;2023-03-25T04:37:33;91019.59;;;6.43
43292;BMP280;28754;47.700;7.924;2023-03-25T04:40:22;91021.38;;;6.43
43292;BMP280;28754;47.700;7.924;2023-03-25T04:43:15;91022.09;;;6.38
43292;BMP280;28754;47.700;7.924;2023-03-25T04:46:01;91027.19;;;6.38
43292;BMP280;28754;47.700;7.924;2023-03-25T04:48:48;91027.72;;;6.40
43292;BMP280;28754;47.700;7.924;2023-03-25T04:51:34;91036.41;;;6.44
43292;BMP280;28754;47.700;7.924;2023-03-25T04:54:21;91025.97;;;6.46
43292;BMP280;28754;47.700;7.924;2023-03-25T04:57:08;91024.69;;;6.43
43292;BMP280;28754;47.700;7.924;2023-03-25T04:59:55;91021.13;;;6.44
43292;BMP280;28754;47.700;7.924;2023-03-25T05:02:43;91009.69;;;6.42
43292;BMP280;28754;47.700;7.924;2023-03-25T05:05:31;91014.75;;;6.42
43292;BMP280;28754;47.700;7.924;2023-03-25T05:08:18;91017.31;;;6.42
43292;BMP280;28754;47.700;7.924;2023-03-25T05:11:06;91019.88;;;6.47
43292;BMP280;28754;47.700;7.924;2023-03-25T05:13:53;91007.44;;;6.50
43292;BMP280;28754;47.700;7.924;2023-03-25T05:16:40;91013.56;;;6.54
43292;BMP280;28754;47.700;7.924;2023-03-25T05:19:27;91015.66;;;6.57
43292;BMP280;28754;47.700;7.924;2023-03-25T05:22:14;91014.38;;;6.54
43292;BMP280;28754;47.700;7.924;2023-03-25T05:25:00;91035.22;;;6.56
43292;BMP280;28754;47.700;7.924;2023-03-25T05:27:47;91010.31;;;6.58
43292;BMP280;28754;47.700;7.924;2023-03-25T05:30:36;91016.97;;;6.64
43292;BMP280;28754;47.700;7.924;2023-03-25T05:33:24;91003.53;;;6.69
43292;BMP280;28754;47.700;7.924;2023-03-25T05:36:12;91022.16;;;6.74
43292;BMP280;28754;47.700;7.924;2023-03-25T05:38:59;91010.72;;;6.77
43292;BMP280;28754;47.700;7.924;2023-03-25T05:41:46;91014.75;;;6.73
43292;BMP280;28754;47.700;7.924;2023-03-25T05:44:32;91013.47;;;6.70
43292;BMP280;28754;47.700;7.924;2023-03-25T05:47:20;91021.88;;;6.71
43292;BMP280;28754;47.700;7.924;2023-03-25T05:50:09;91018.84;;;6.74
43292;BMP280;28754;47.700;7.924;2023-03-25T05:52:56;91017.84;;;6.75
43292;BMP280;28754;47.700;7.924;2023-03-25T05:55:42;91018.88;;;6.79
43292;BMP280;28754;47.700;7.924;2023-03-25T05:58:29;91021.97;;;6.81
43292;BMP280;28754;47.700;7.924;2023-03-25T06:01:19;91017.63;;;6.81
43292;BMP280;28754;47.700;7.924;2023-03-25T06:04:06;91032.91;;;6.81
43292;BMP280;28754;47.700;7.924;2023-03-25T06:06:55;91036.47;;;6.80
43292;BMP280;28754;47.700;7.924;2023-03-25T06:09:41;91019.88;;;6.78
43292;BMP280;28754;47.700;7.924;2023-03-25T06:12:33;91032.91;;;6.81
43292;BMP280;28754;47.700;7.924;2023-03-25T06:15:23;91031.63;;;6.83
43292;BMP280;28754;47.700;7.924;2023-03-25T06:18:18;91029.59;;;6.81
43292;BMP280;28754;47.700;7.924;2023-03-25T06:21:07;91022.94;;;6.80
43292;BMP280;28754;47.700;7.924;2023-03-25T06:23:56;91034.41;;;6.82
43292;BMP280;28754;47.700;7.924;2023-03-25T06:26:43;91027.56;;;6.83
43292;BMP280;28754;47.700;7.924;2023-03-25T06:29:29;91040.75;;;6.80
43292;BMP280;28754;47.700;7.924;2023-03-25T06:32:16;91030.13;;;6.83
43292;BMP280;28754;47.700;7.924;2023-03-25T06:35:05;91033.19;;;6.84
43292;BMP280;28754;47.700;7.924;2023-03-25T06:37:52;91048.72;;;6.88
43292;BMP280;28754;47.700;7.924;2023-03-25T06:40:50;91023.53;;;6.86
43292;BMP280;28754;47.700;7.924;2023-03-25T06:43:37;91018.38;;;6.82
43292;BMP280;28754;47.700;7.924;2023-03-25T06:46:26;91033.66;;;6.82
43292;BMP280;28754;47.700;7.924;2023-03-25T06:49:31;91031.09;;;6.82
43292;BMP280;28754;47.700;7.924;2023-03-25T06:52:19;91028.56;;;6.82
43292;BMP280;28754;47.700;7.924;2023-03-25T06:55:06;91036.25;;;6.86
43292;BMP280;28754;47.700;7.924;2023-03-25T06:57:56;91018.94;;;6.88
43292;BMP280;28754;47.700;7.924;2023-03-25T07:00:42;91029.13;;;6.88
43292;BMP280;28754;47.700;7.924;2023-03-25T07:03:29;91011.31;;;6.88
43292;BMP280;28754;47.700;7.924;2023-03-25T07:06:17;91020.56;;;6.99
43292;BMP280;28754;47.700;7.924;2023-03-25T07:09:05;91016.50;;;7.03
43292;BMP280;28754;47.700;7.924;2023-03-25T07:11:52;91007.88;;;7.04
43292;BMP280;28754;47.700;7.924;2023-03-25T07:14:38;91004.84;;;7.07
43292;BMP280;28754;47.700;7.924;2023-03-25T07:17:25;91021.38;;;7.10
43292;BMP280;28754;47.700;7.924;2023-03-25T07:20:11;91017.03;;;7.05
43292;BMP280;28754;47.700;7.924;2023-03-25T07:22:58;91018.31;;;7.08
43292;BMP280;28754;47.700;7.924;2023-03-25T07:25:44;91010.41;;;7.04
43292;BMP280;28754;47.700;7.924;2023-03-25T07:28:31;91015.50;;;7.04
43292;BMP280;28754;47.700;7.924;2023-03-25T07:31:17;91024.72;;;7.10
43292;BMP280;28754;47.700;7.924;2023-03-25T07:34:04;91032.34;;;7.10
43292;BMP280;28754;47.700;7.924;2023-03-25T07:36:52;91015.78;;;7.08
43292;BMP280;28754;47.700;7.924;2023-03-25T07:39:39;91017.56;;;7.07
43292;BMP280;28754;47.700;7.924;2023-03-25T07:42:25;91011.69;;;7.02
43292;BMP280;28754;47.700;7.924;2023-03-25T07:45:33;91013.50;;;7.06
43292;BMP280;28754;47.700;7.924;2023-03-25T07:48:19;91019.34;;;7.07
43292;BMP280;28754;47.700;7.924;2023-03-25T07:51:07;91021.56;;;6.98
43292;BMP280;28754;47.700;7.924;2023-03-25T07:53:55;91018.50;;;6.96
43292;BMP280;28754;47.700;7.924;2023-03-25T07:56:41;91029.72;;;6.95
43292;BMP280;28754;47.700;7.924;2023-03-25T07:59:28;91031.16;;;6.86
43292;BMP280;28754;47.700;7.924;2023-03-25T08:02:14;91044.84;;;6.81
43292;BMP280;28754;47.700;7.924;2023-03-25T08:05:01;91039.66;;;6.71
43292;BMP280;28754;47.700;7.924;2023-03-25T08:07:49;91047.81;;;6.68
43292;BMP280;28754;47.700;7.924;2023-03-25T08:10:35;91037.81;;;6.61
43292;BMP280;28754;47.700;7.924;2023-03-25T08:13:22;91030.19;;;6.61
43292;BMP280;28754;47.700;7.924;2023-03-25T08:16:10;91037.06;;;6.61
43292;BMP280;28754;47.700;7.924;2023-03-25T08:18:57;91042.38;;;6.59
43292;BMP280;28754;47.700;7.924;2023-03-25T08:21:44;91051.50;;;6.55
43292;BMP280;28754;47.700;7.924;2023-03-25T08:24:30;91054.28;;;6.54
43292;BMP280;28754;47.700;7.924;2023-03-25T08:27:18;91043.34;;;6.53
43292;BMP280;28754;47.700;7.924;2023-03-25T08:30:05;91040.75;;;6.49
43292;BMP280;28754;47.700;7.924;2023-03-25T08:32:53;91042.06;;;6.51
43292;BMP280;28754;47.700;7.924;2023-03-25T08:35:39;91049.44;;;6.52
43292;BMP280;28754;47.700;7.924;2023-03-25T08:38:27;91031.88;;;6.51
43292;BMP280;28754;47.700;7.924;2023-03-25T08:41:18;91044.09;;;6.54
43292;BMP280;28754;47.700;7.924;2023-03-25T08:44:06;91027.84;;;6.55
43292;BMP280;28754;47.700;7.924;2023-03-25T08:46:53;91036.28;;;6.60
43292;BMP280;28754;47.700;7.924;2023-03-25T08:49:40;91046.22;;;6.62
43292;BMP280;28754;47.700;7.924;2023-03-25T08:52:26;91037.06;;;6.61
43292;BMP280;28754;47.700;7.924;2023-03-25T08:55:13;91053.31;;;6.60
43292;BMP280;28754;47.700;7.924;2023-03-25T08:58:04;91050.28;;;6.63
43292;BMP280;28754;47.700;7.924;2023-03-25T09:00:53;91051.34;;;6.67
43292;BMP280;28754;47.700;7.924;2023-03-25T09:03:40;91057.91;;;6.63
43292;BMP280;28754;47.700;7.924;2023-03-25T09:06:27;91048.47;;;6.58
43292;BMP280;28754;47.700;7.924;2023-03-25T09:09:15;91048.66;;;6.52
43292;BMP280;28754;47.700;7.924;2023-03-25T09:12:01;91049.88;;;6.45
43292;BMP280;28754;47.700;7.924;2023-03-25T09:14:48;91036.09;;;6.41
43292;BMP280;28754;47.700;7.924;2023-03-25T09:17:34;91039.91;;;6.38
43292;BMP280;28754;47.700;7.924;2023-03-25T09:20:21;91044.75;;;6.40
43292;BMP280;28754;47.700;7.924;2023-03-25T09:23:08;91039.41;;;6.41
43292;BMP280;28754;47.700;7.924;2023-03-25T09:26:01;91029.91;;;6.32
43292;BMP280;28754;47.700;7.924;2023-03-25T09:28:49;91032.94;;;6.29
43292;BMP280;28754;47.700;7.924;2023-03-25T09:31:35;91049.94;;;6.28
43292;BMP280;28754;47.700;7.924;2023-03-25T09:34:22;91045.88;;;6.27
43292;BMP280;28754;47.700;7.924;2023-03-25T09:37:08;91056.03;;;6.22
43292;BMP280;28754;47.700;7.924;2023-03-25T09:39:55;91051.34;;;6.15
43292;BMP280;28754;47.700;7.924;2023-03-25T09:42:49;91065.75;;;6.09
43292;BMP280;28754;47.700;7.924;2023-03-25T09:45:42;91072.81;;;6.02
43292;BMP280;28754;47.700;7.924;2023-03-25T09:48:39;91067.16;;;5.95
43292;BMP280;28754;47.700;7.924;2023-03-25T09:51:32;91072.41;;;5.89
43292;BMP280;28754;47.700;7.924;2023-03-25T09:57:15;91084.81;;;5.85
43292;BMP280;28754;47.700;7.924;2023-03-25T10:00:04;91074.81;;;5.79
43292;BMP280;28754;47.700;7.924;2023-03-25T10:03:03;91084.53;;;5.82
43292;BMP280;28754;47.700;7.924;2023-03-25T10:15:03;91089.53;;;5.98
43292;BMP280;28754;47.700;7.924;2023-03-25T10:18:07;91084.81;;;6.07
43292;BMP280;28754;47.700;7.924;2023-03-25T10:21:06;91097.63;;;6.16
43292;BMP280;28754;47.700;7.924;2023-03-25T10:24:33;91098.97;;;6.24
43292;BMP280;28754;47.700;7.924;2023-03-25T10:30:26;91094.28;;;6.37
43292;BMP280;28754;47.700;7.924;2023-03-25T10:33:23;91097.47;;;6.49
43292;BMP280;28754;47.700;7.924;2023-03-25T10:36:16;91092.97;;;6.56
43292;BMP280;28754;47.700;7.924;2023-03-25T10:39:14;91104.03;;;6.71
43292;BMP280;28754;47.700;7.924;2023-03-25T10:42:18;91104.91;;;6.82
43292;BMP280;28754;47.700;7.924;2023-03-25T10:45:12;91110.66;;;6.98
43292;BMP280;28754;47.700;7.924;2023-03-25T10:48:27;91107.16;;;7.04
43292;BMP280;28754;47.700;7.924;2023-03-25T10:51:20;91097.50;;;7.06
43292;BMP280;28754;47.700;7.924;2023-03-25T10:54:11;91112.78;;;7.06
43292;BMP280;28754;47.700;7.924;2023-03-25T10:57:02;91119.91;;;7.09
43292;BMP280;28754;47.700;7.924;2023-03-25T11:02:41;91147.50;;;7.22
43292;BMP280;28754;47.700;7.924;2023-03-25T11:05:28;91122.91;;;7.32
43292;BMP280;28754;47.700;7.924;2023-03-25T11:08:15;91114.00;;;7.35
43292;BMP280;28754;47.700;7.924;2023-03-25T11:11:06;91119.91;;;7.40
43292;BMP280;28754;47.700;7.924;2023-03-25T11:13:55;91122.25;;;7.47
43292;BMP280;28754;47.700;7.924;2023-03-25T11:16:47;91121.75;;;7.50
43292;BMP280;28754;47.700;7.924;2023-03-25T11:19:44;91113.38;;;7.54
43292;BMP280;28754;47.700;7.924;2023-03-25T11:22:35;91101.91;;;7.52
43292;BMP280;28754;47.700;7.924;2023-03-25T11:25:25;91106.22;;;7.51
43292;BMP280;28754;47.700;7.924;2023-03-25T11:28:21;91117.41;;;7.50
43292;BMP280;28754;47.700;7.924;2023-03-25T11:31:33;91092.56;;;7.31
43292;BMP280;28754;47.700;7.924;2023-03-25T11:34:21;91112.72;;;7.32
43292;BMP280;28754;47.700;7.924;2023-03-25T11:37:16;91104.09;;;7.38
43292;BMP280;28754;47.700;7.924;2023-03-25T11:40:17;91107.50;;;7.53
43292;BMP280;28754;47.700;7.924;2023-03-25T11:43:03;91109.84;;;7.60
43292;BMP280;28754;47.700;7.924;2023-03-25T11:45:50;91112.91;;;7.62
43292;BMP280;28754;47.700;7.924;2023-03-25T11:48:40;91103.72;;;7.61
43292;BMP280;28754;47.700;7.924;2023-03-25T11:51:34;91109.13;;;7.69
43292;BMP280;28754;47.700;7.924;2023-03-25T11:54:44;91111.47;;;7.76
43292;BMP280;28754;47.700;7.924;2023-03-25T11:57:38;91109.22;;;7.84
43292;BMP280;28754;47.700;7.924;2023-03-25T12:00:37;91095.72;;;7.88
43292;BMP280;28754;47.700;7.924;2023-03-25T12:03:28;91097.00;;;7.91
43292;BMP280;28754;47.700;7.924;2023-03-25T12:06:18;91087.34;;;7.93
43292;BMP280;28754;47.700;7.924;2023-03-25T12:09:08;91093.47;;;7.92
43292;BMP280;28754;47.700;7.924;2023-03-25T12:12:59;91087.59;;;7.91
43292;BMP280;28754;47.700;7.924;2023-03-25T12:15:35;91082.75;;;7.95
43292;BMP280;28754;47.700;7.924;2023-03-25T12:18:37;91092.19;;;7.94
43292;BMP280;28754;47.700;7.924;2023-03-25T12:21:56;91085.59;;;8.03
43292;BMP280;28754;47.700;7.924;2023-03-25T12:25:23;91093.78;;;8.05
43292;BMP280;28754;47.700;7.924;2023-03-25T12:28:34;91087.22;;;8.14
43292;BMP280;28754;47.700;7.924;2023-03-25T12:31:39;91074.75;;;8.27
43292;BMP280;28754;47.700;7.924;2023-03-25T12:34:47;91075.78;;;8.31
43292;BMP280;28754;47.700;7.924;2023-03-25T12:41:30;91067.94;;;8.43
43292;BMP280;28754;47.700;7.924;2023-03-25T12:44:50;91070.72;;;8.41
43292;BMP280;28754;47.700;7.924;2023-03-25T12:47:41;91063.59;;;8.43
43292;BMP280;28754;47.700;7.924;2023-03-25T12:53:33;91076.59;;;8.42
43292;BMP280;28754;47.700;7.924;2023-03-25T12:59:40;91077.34;;;8.32
43292;BMP280;28754;47.700;7.924;2023-03-25T13:03:01;91085.25;;;8.31
43292;BMP280;28754;47.700;7.924;2023-03-25T13:09:27;91082.72;;;8.41
43292;BMP280;28754;47.700;7.924;2023-03-25T13:12:40;91077.63;;;8.41
43292;BMP280;28754;47.700;7.924;2023-03-25T13:22:42;91061.00;;;8.28
43292;BMP280;28754;47.700;7.924;2023-03-25T13:25:55;91075.84;;;8.36
43292;BMP280;28754;47.700;7.924;2023-03-25T13:28:47;91067.94;;;8.43
43292;BMP280;28754;47.700;7.924;2023-03-25T13:31:50;91070.25;;;8.49
43292;BMP280;28754;47.700;7.924;2023-03-25T13:34:46;91068.47;;;8.50
43292;BMP280;28754;47.700;7.924;2023-03-25T13:37:42;91060.00;;;8.44
43292;BMP280;28754;47.700;7.924;2023-03-25T13:51:57;91073.56;;;8.50
43292;BMP280;28754;47.700;7.924;2023-03-25T13:54:54;91066.19;;;8.58
43292;BMP280;28754;47.700;7.924;2023-03-25T14:13:19;91089.13;;;8.48
43292;BMP280;28754;47.700;7.924;2023-03-25T14:16:11;91094.22;;;8.43
43292;BMP280;28754;47.700;7.924;2023-03-25T14:19:30;91095.22;;;8.42
43292;BMP280;28754;47.700;7.924;2023-03-25T14:22:52;91100.88;;;8.59
43292;BMP280;28754;47.700;7.924;2023-03-25T14:25:55;91098.13;;;8.70
43292;BMP280;28754;47.700;7.924;2023-03-25T14:29:00;91098.88;;;8.76
43292;BMP280;28754;47.700;7.924;2023-03-25T14:36:04;91082.56;;;8.82
43292;BMP280;28754;47.700;7.924;2023-03-25T14:39:08;91084.59;;;8.85
43292;BMP280;28754;47.700;7.924;2023-03-25T14:44:52;91082.06;;;9.04
43292;BMP280;28754;47.700;7.924;2023-03-25T14:47:51;91080.03;;;9.21
43292;BMP280;28754;47.700;7.924;2023-03-25T14:50:38;91074.91;;;9.21
43292;BMP280;28754;47.700;7.924;2023-03-25T14:53:26;91087.19;;;9.14
43292;BMP280;28754;47.700;7.924;2023-03-25T14:56:16;91082.06;;;9.04
43292;BMP280;28754;47.700;7.924;2023-03-25T14:59:20;91100.97;;;8.98
43292;BMP280;28754;47.700;7.924;2023-03-25T15:02:30;91102.47;;;8.89
43292;BMP280;28754;47.700;7.924;2023-03-25T15:05:42;91097.38;;;8.85
43292;BMP280;28754;47.700;7.924;2023-03-25T15:09:10;91097.66;;;9.03
43292;BMP280;28754;47.700;7.924;2023-03-25T15:12:02;91103.53;;;9.18
43292;BMP280;28754;47.700;7.924;2023-03-25T15:15:23;91084.38;;;9.21
43292;BMP280;28754;47.700;7.924;2023-03-25T15:21:31;91086.94;;;9.16
43292;BMP280;28754;47.700;7.924;2023-03-25T15:24:30;91080.53;;;9.08
43292;BMP280;28754;47.700;7.924;2023-03-25T15:33:58;91091.47;;;8.69
43292;BMP280;28754;47.700;7.924;2023-03-25T15:43:26;91072.06;;;8.63
43292;BMP280;28754;47.700;7.924;2023-03-25T15:46:56;91087.63;;;8.72
43292;BMP280;28754;47.700;7.924;2023-03-25T15:50:09;91087.91;;;8.75
43292;BMP280;28754;47.700;7.924;2023-03-25T15:53:06;91088.44;;;8.77
43292;BMP280;28754;47.700;7.924;2023-03-25T15:56:01;91088.94;;;8.79
43292;BMP280;28754;47.700;7.924;2023-03-25T15:59:29;91091.50;;;8.79
43292;BMP280;28754;47.700;7.924;2023-03-25T16:05:55;91089.16;;;8.68
43292;BMP280;28754;47.700;7.924;2023-03-25T16:08:45;91090.19;;;8.72
43292;BMP280;28754;47.700;7.924;2023-03-25T16:11:34;91084.31;;;8.71
43292;BMP280;28754;47.700;7.924;2023-03-25T16:14:21;91091.75;;;8.73
43292;BMP280;28754;47.700;7.924;2023-03-25T16:17:21;91084.84;;;8.68
43292;BMP280;28754;47.700;7.924;2023-03-25T16:20:16;91077.94;;;8.64
43292;BMP280;28754;47.700;7.924;2023-03-25T16:23:05;91078.44;;;8.61
43292;BMP280;28754;47.700;7.924;2023-03-25T16:25:52;91082.78;;;8.56
43292;BMP280;28754;47.700;7.924;2023-03-25T16:28:41;91084.28;;;8.52
43292;BMP280;28754;47.700;7.924;2023-03-25T16:31:34;91089.91;;;8.54
43292;BMP280;28754;47.700;7.924;2023-03-25T16:34:32;91097.81;;;8.57
43292;BMP280;28754;47.700;7.924;2023-03-25T16:37:20;91091.19;;;8.56
43292;BMP280;28754;47.700;7.924;2023-03-25T16:40:07;91088.88;;;8.59
43292;BMP280;28754;47.700;7.924;2023-03-25T16:43:04;91077.66;;;8.60
43292;BMP280;28754;47.700;7.924;2023-03-25T16:45:55;91090.72;;;8.64
43292;BMP280;28754;47.700;7.924;2023-03-25T16:48:52;91088.41;;;8.67
43292;BMP280;28754;47.700;7.924;2023-03-25T16:51:39;91075.41;;;8.69
43292;BMP280;28754;47.700;7.924;2023-03-25T16:54:42;91073.09;;;8.72
43292;BMP280;28754;47.700;7.924;2023-03-25T16:57:34;91062.13;;;8.67
43292;BMP280;28754;47.700;7.924;2023-03-25T17:00:22;91078.94;;;8.68
43292;BMP280;28754;47.700;7.924;2023-03-25T17:03:15;91076.91;;;8.70
43292;BMP280;28754;47.700;7.924;2023-03-25T17:06:20;91083.56;;;8.71
43292;BMP280;28754;47.700;7.924;2023-03-25T17:09:20;91083.53;;;8.66
43292;BMP280;28754;47.700;7.924;2023-03-25T17:12:18;91091.47;;;8.69
43292;BMP280;28754;47.700;7.924;2023-03-25T17:15:06;91068.75;;;8.68
43292;BMP280;28754;47.700;7.924;2023-03-25T17:17:57;91079.47;;;8.70
43292;BMP280;28754;47.700;7.924;2023-03-25T17:20:47;91094.28;;;8.73
43292;BMP280;28754;47.700;7.924;2023-03-25T17:26:30;91073.09;;;8.72
43292;BMP280;28754;47.700;7.924;2023-03-25T17:29:18;91073.88;;;8.73
43292;BMP280;28754;47.700;7.924;2023-03-25T17:32:16;91075.41;;;8.69
43292;BMP280;28754;47.700;7.924;2023-03-25T17:35:04;91081.78;;;8.66
43292;BMP280;28754;47.700;7.924;2023-03-25T17:37:55;91080.50;;;8.64
43292;BMP280;28754;47.700;7.924;2023-03-25T17:40:41;91069.25;;;8.60
43292;BMP280;28754;47.700;7.924;2023-03-25T17:43:30;91082.00;;;8.60
43292;BMP280;28754;47.700;7.924;2023-03-25T17:46:20;91072.56;;;8.60
43292;BMP280;28754;47.700;7.924;2023-03-25T17:49:15;91085.31;;;8.65
43292;BMP280;28754;47.700;7.924;2023-03-25T17:52:02;91094.25;;;8.68
43292;BMP280;28754;47.700;7.924;2023-03-25T17:54:48;91089.94;;;8.68
43292;BMP280;28754;47.700;7.924;2023-03-25T17:57:37;91088.41;;;8.67
43292;BMP280;28754;47.700;7.924;2023-03-25T18:00:23;91090.19;;;8.67
43292;BMP280;28754;47.700;7.924;2023-03-25T18:03:13;91093.75;;;8.66
43292;BMP280;28754;47.700;7.924;2023-03-25T18:06:00;91071.03;;;8.64
43292;BMP280;28754;47.700;7.924;2023-03-25T18:08:46;91075.63;;;8.62
43292;BMP280;28754;47.700;7.924;2023-03-25T18:11:33;91071.28;;;8.63
43292;BMP280;28754;47.700;7.924;2023-03-25T18:14:21;91087.13;;;8.60
43292;BMP280;28754;47.700;7.924;2023-03-25T18:17:11;91080.47;;;8.59
43292;BMP280;28754;47.700;7.924;2023-03-25T18:19:57;91085.31;;;8.60
43292;BMP280;28754;47.700;7.924;2023-03-25T18:22:44;91088.41;;;8.57
43292;BMP280;28754;47.700;7.924;2023-03-25T18:25:31;91095.25;;;8.57
43292;BMP280;28754;47.700;7.924;2023-03-25T18:28:19;91093.97;;;8.55
43292;BMP280;28754;47.700;7.924;2023-03-25T18:31:05;91097.28;;;8.50
43292;BMP280;28754;47.700;7.924;2023-03-25T18:33:54;91099.31;;;8.48
43292;BMP280;28754;47.700;7.924;2023-03-25T18:36:42;91122.53;;;8.47
43292;BMP280;28754;47.700;7.924;2023-03-25T18:39:30;91118.22;;;8.47
43292;BMP280;28754;47.700;7.924;2023-03-25T18:42:17;91121.78;;;8.46
43292;BMP280;28754;47.700;7.924;2023-03-25T18:45:04;91122.03;;;8.45
43292;BMP280;28754;47.700;7.924;2023-03-25T18:47:51;91121.78;;;8.46
43292;BMP280;28754;47.700;7.924;2023-03-25T18:50:43;91127.91;;;8.45